This is the latest recevied weather packets stored in our database for station/object DM5EI-L4. If no packets are shown the sender has not sent any weather packets the latest 10 day(s).
| Time | Temp. | Humidity | Pressure | Rain* | Wind** | Luminosity | Snow |
|---|---|---|---|---|---|---|---|
| 1777645410 | 28.33° C | 91% | 1025 hPa | - | - | - | - |
| 1777644509 | 28.89° C | 92% | 1026 hPa | - | - | - | - |
| 1777643608 | 28.33° C | 92% | 1026 hPa | - | - | - | - |
| 1777642707 | 28.33° C | 93% | 1026 hPa | - | - | - | - |
| 1777641806 | 27.78° C | 96% | 1026 hPa | - | - | - | - |
| 1777640904 | 26.11° C | 98% | 1027 hPa | - | - | - | - |
| 1777640003 | 25° C | 98% | 1027 hPa | - | - | - | - |
| 1777639102 | 25° C | 97% | 1027 hPa | - | - | - | - |
| 1777638201 | 24.44° C | 96% | 1027 hPa | - | - | - | - |
| 1777637300 | 23.89° C | 98% | 1027 hPa | - | - | - | - |
| 1777636399 | 23.33° C | 98% | 1028 hPa | - | - | - | - |
| 1777635498 | 23.33° C | 97% | 1028 hPa | - | - | - | - |
| 1777634597 | 22.78° C | 97% | 1028 hPa | - | - | - | - |
| 1777633696 | 23.33° C | 96% | 1028 hPa | - | - | - | - |
| 1777632795 | 22.22° C | 96% | 1028 hPa | - | - | - | - |
| 1777631893 | 22.22° C | 97% | 1028 hPa | - | - | - | - |
| 1777630992 | 21.67° C | 98% | 1029 hPa | - | - | - | - |
| 1777630091 | 21.67° C | 97% | 1029 hPa | - | - | - | - |
| 1777629190 | 21.11° C | 98% | 1029 hPa | - | - | - | - |
| 1777628289 | 20.56° C | 97% | 1029 hPa | - | - | - | - |
| 1777627388 | 20.56° C | 97% | 1029 hPa | - | - | - | - |
| 1777626487 | 20° C | 97% | 1029 hPa | - | - | - | - |
| 1777625586 | 20° C | 96% | 1029 hPa | - | - | - | - |
| 1777624684 | 21.11° C | 91% | 1030 hPa | - | - | - | - |
| 1777623783 | 23.33° C | 84% | 1030 hPa | - | - | - | - |
* Rain since midnight (hover to see other rain measurements)
** Current wind speed in m/s (hover to see current wind gust speed)